sensor_id;sensor_type;location;lat;lon;timestamp;P1;durP1;ratioP1;P2;durP2;ratioP2
18228;SDS011;9239;50.932;3.142;2023-02-22T00:00:12;42.47;;;24.97;;
18228;SDS011;9239;50.932;3.142;2023-02-22T00:02:47;69.10;;;26.80;;
18228;SDS011;9239;50.932;3.142;2023-02-22T00:05:15;58.37;;;25.33;;
18228;SDS011;9239;50.932;3.142;2023-02-22T00:07:44;51.10;;;26.43;;
18228;SDS011;9239;50.932;3.142;2023-02-22T00:10:12;48.07;;;25.83;;
18228;SDS011;9239;50.932;3.142;2023-02-22T00:12:45;85.60;;;26.40;;
18228;SDS011;9239;50.932;3.142;2023-02-22T00:15:14;46.23;;;24.87;;
18228;SDS011;9239;50.932;3.142;2023-02-22T00:17:41;50.07;;;24.03;;
18228;SDS011;9239;50.932;3.142;2023-02-22T00:20:09;61.07;;;25.93;;
18228;SDS011;9239;50.932;3.142;2023-02-22T00:22:38;46.70;;;25.67;;
18228;SDS011;9239;50.932;3.142;2023-02-22T00:25:06;60.50;;;24.87;;
18228;SDS011;9239;50.932;3.142;2023-02-22T00:27:33;63.57;;;25.97;;
18228;SDS011;9239;50.932;3.142;2023-02-22T00:30:01;51.00;;;25.20;;
18228;SDS011;9239;50.932;3.142;2023-02-22T00:32:29;54.60;;;23.80;;
18228;SDS011;9239;50.932;3.142;2023-02-22T00:34:56;52.97;;;23.20;;
18228;SDS011;9239;50.932;3.142;2023-02-22T00:37:23;47.70;;;24.57;;
18228;SDS011;9239;50.932;3.142;2023-02-22T00:39:50;65.10;;;24.57;;
18228;SDS011;9239;50.932;3.142;2023-02-22T00:42:17;47.47;;;23.33;;
18228;SDS011;9239;50.932;3.142;2023-02-22T00:44:45;60.30;;;24.73;;
18228;SDS011;9239;50.932;3.142;2023-02-22T00:47:13;35.23;;;23.30;;
18228;SDS011;9239;50.932;3.142;2023-02-22T00:49:40;47.40;;;22.80;;
18228;SDS011;9239;50.932;3.142;2023-02-22T00:52:07;43.40;;;22.20;;
18228;SDS011;9239;50.932;3.142;2023-02-22T00:54:34;66.07;;;24.17;;
18228;SDS011;9239;50.932;3.142;2023-02-22T00:57:01;65.20;;;24.87;;
18228;SDS011;9239;50.932;3.142;2023-02-22T00:59:29;49.70;;;22.77;;
18228;SDS011;9239;50.932;3.142;2023-02-22T01:01:56;55.70;;;24.63;;
18228;SDS011;9239;50.932;3.142;2023-02-22T01:04:24;67.90;;;24.03;;
18228;SDS011;9239;50.932;3.142;2023-02-22T01:06:51;64.27;;;24.23;;
18228;SDS011;9239;50.932;3.142;2023-02-22T01:09:19;75.80;;;25.33;;
18228;SDS011;9239;50.932;3.142;2023-02-22T01:11:46;57.97;;;23.67;;
18228;SDS011;9239;50.932;3.142;2023-02-22T01:14:14;105.77;;;26.50;;
18228;SDS011;9239;50.932;3.142;2023-02-22T01:16:42;82.67;;;26.53;;
18228;SDS011;9239;50.932;3.142;2023-02-22T01:19:09;74.80;;;25.37;;
18228;SDS011;9239;50.932;3.142;2023-02-22T01:21:37;50.67;;;23.67;;
18228;SDS011;9239;50.932;3.142;2023-02-22T01:24:05;59.67;;;27.10;;
18228;SDS011;9239;50.932;3.142;2023-02-22T01:26:32;82.57;;;25.53;;
18228;SDS011;9239;50.932;3.142;2023-02-22T01:28:59;82.03;;;25.10;;
18228;SDS011;9239;50.932;3.142;2023-02-22T01:31:26;58.20;;;22.73;;
18228;SDS011;9239;50.932;3.142;2023-02-22T01:33:53;67.33;;;25.57;;
18228;SDS011;9239;50.932;3.142;2023-02-22T01:36:19;36.80;;;21.83;;
18228;SDS011;9239;50.932;3.142;2023-02-22T01:38:48;53.13;;;21.67;;
18228;SDS011;9239;50.932;3.142;2023-02-22T01:41:15;35.53;;;21.37;;
18228;SDS011;9239;50.932;3.142;2023-02-22T01:43:42;38.93;;;22.30;;
18228;SDS011;9239;50.932;3.142;2023-02-22T01:46:18;33.20;;;21.60;;
18228;SDS011;9239;50.932;3.142;2023-02-22T01:48:47;31.83;;;22.47;;
18228;SDS011;9239;50.932;3.142;2023-02-22T01:51:17;34.53;;;22.27;;
18228;SDS011;9239;50.932;3.142;2023-02-22T01:53:49;32.63;;;22.03;;
18228;SDS011;9239;50.932;3.142;2023-02-22T01:56:18;33.93;;;23.67;;
18228;SDS011;9239;50.932;3.142;2023-02-22T01:58:48;37.13;;;22.50;;
18228;SDS011;9239;50.932;3.142;2023-02-22T02:01:17;32.23;;;22.20;;
18228;SDS011;9239;50.932;3.142;2023-02-22T02:03:47;33.97;;;23.33;;
18228;SDS011;9239;50.932;3.142;2023-02-22T02:06:15;33.73;;;23.83;;
18228;SDS011;9239;50.932;3.142;2023-02-22T02:08:46;33.10;;;23.17;;
18228;SDS011;9239;50.932;3.142;2023-02-22T02:11:20;36.23;;;23.40;;
18228;SDS011;9239;50.932;3.142;2023-02-22T02:13:52;34.50;;;23.20;;
18228;SDS011;9239;50.932;3.142;2023-02-22T02:16:21;34.03;;;23.30;;
18228;SDS011;9239;50.932;3.142;2023-02-22T02:18:49;31.90;;;22.30;;
18228;SDS011;9239;50.932;3.142;2023-02-22T02:24:17;31.10;;;22.23;;
18228;SDS011;9239;50.932;3.142;2023-02-22T02:27:15;31.40;;;22.93;;
18228;SDS011;9239;50.932;3.142;2023-02-22T02:32:48;29.00;;;20.53;;
18228;SDS011;9239;50.932;3.142;2023-02-22T02:35:20;30.23;;;21.30;;
18228;SDS011;9239;50.932;3.142;2023-02-22T02:37:56;31.90;;;21.80;;
18228;SDS011;9239;50.932;3.142;2023-02-22T02:40:31;32.87;;;21.67;;
18228;SDS011;9239;50.932;3.142;2023-02-22T02:43:05;31.00;;;21.73;;
18228;SDS011;9239;50.932;3.142;2023-02-22T02:45:39;31.67;;;22.47;;
18228;SDS011;9239;50.932;3.142;2023-02-22T02:48:14;32.53;;;22.70;;
18228;SDS011;9239;50.932;3.142;2023-02-22T02:50:45;32.47;;;22.13;;
18228;SDS011;9239;50.932;3.142;2023-02-22T02:53:14;30.93;;;20.63;;
18228;SDS011;9239;50.932;3.142;2023-02-22T02:55:45;27.73;;;20.87;;
18228;SDS011;9239;50.932;3.142;2023-02-22T02:58:15;32.30;;;21.77;;
18228;SDS011;9239;50.932;3.142;2023-02-22T03:00:45;29.87;;;20.47;;
18228;SDS011;9239;50.932;3.142;2023-02-22T03:03:21;30.30;;;21.80;;
18228;SDS011;9239;50.932;3.142;2023-02-22T03:06:06;34.57;;;22.40;;
18228;SDS011;9239;50.932;3.142;2023-02-22T03:08:47;29.83;;;20.50;;
18228;SDS011;9239;50.932;3.142;2023-02-22T03:11:23;32.87;;;21.77;;
18228;SDS011;9239;50.932;3.142;2023-02-22T03:13:57;33.17;;;23.10;;
18228;SDS011;9239;50.932;3.142;2023-02-22T03:16:33;31.03;;;21.70;;
18228;SDS011;9239;50.932;3.142;2023-02-22T03:19:11;30.93;;;22.30;;
18228;SDS011;9239;50.932;3.142;2023-02-22T03:21:48;32.80;;;21.67;;
18228;SDS011;9239;50.932;3.142;2023-02-22T03:24:21;29.23;;;22.70;;
18228;SDS011;9239;50.932;3.142;2023-02-22T03:26:53;35.20;;;22.50;;
18228;SDS011;9239;50.932;3.142;2023-02-22T03:29:27;28.40;;;22.03;;
18228;SDS011;9239;50.932;3.142;2023-02-22T03:32:00;34.47;;;24.23;;
18228;SDS011;9239;50.932;3.142;2023-02-22T03:34:32;32.73;;;22.63;;
18228;SDS011;9239;50.932;3.142;2023-02-22T03:37:06;34.33;;;24.33;;
18228;SDS011;9239;50.932;3.142;2023-02-22T03:39:38;27.30;;;21.83;;
18228;SDS011;9239;50.932;3.142;2023-02-22T03:42:08;37.00;;;23.77;;
18228;SDS011;9239;50.932;3.142;2023-02-22T03:44:40;31.53;;;22.13;;
18228;SDS011;9239;50.932;3.142;2023-02-22T03:47:10;29.03;;;21.50;;
18228;SDS011;9239;50.932;3.142;2023-02-22T03:49:43;29.50;;;20.70;;
18228;SDS011;9239;50.932;3.142;2023-02-22T03:52:14;29.23;;;21.50;;
18228;SDS011;9239;50.932;3.142;2023-02-22T03:54:41;29.63;;;21.20;;
18228;SDS011;9239;50.932;3.142;2023-02-22T03:57:09;29.07;;;21.83;;
18228;SDS011;9239;50.932;3.142;2023-02-22T03:59:40;30.17;;;22.10;;
18228;SDS011;9239;50.932;3.142;2023-02-22T04:02:08;29.13;;;21.93;;
18228;SDS011;9239;50.932;3.142;2023-02-22T04:04:35;32.50;;;23.17;;
18228;SDS011;9239;50.932;3.142;2023-02-22T04:07:03;30.87;;;23.40;;
18228;SDS011;9239;50.932;3.142;2023-02-22T04:09:30;28.70;;;22.20;;
18228;SDS011;9239;50.932;3.142;2023-02-22T04:11:56;29.27;;;22.27;;
18228;SDS011;9239;50.932;3.142;2023-02-22T04:14:23;30.93;;;24.13;;
18228;SDS011;9239;50.932;3.142;2023-02-22T04:16:50;32.40;;;24.17;;
18228;SDS011;9239;50.932;3.142;2023-02-22T04:19:17;29.33;;;22.90;;
18228;SDS011;9239;50.932;3.142;2023-02-22T04:21:44;30.60;;;22.80;;
18228;SDS011;9239;50.932;3.142;2023-02-22T04:24:12;32.17;;;23.97;;
18228;SDS011;9239;50.932;3.142;2023-02-22T04:26:39;31.90;;;24.37;;
18228;SDS011;9239;50.932;3.142;2023-02-22T04:29:06;29.93;;;23.03;;
18228;SDS011;9239;50.932;3.142;2023-02-22T04:31:34;29.33;;;22.47;;
18228;SDS011;9239;50.932;3.142;2023-02-22T04:34:00;33.60;;;23.07;;
18228;SDS011;9239;50.932;3.142;2023-02-22T04:36:28;30.47;;;22.57;;
18228;SDS011;9239;50.932;3.142;2023-02-22T04:38:56;33.53;;;24.07;;
18228;SDS011;9239;50.932;3.142;2023-02-22T04:41:25;30.90;;;22.37;;
18228;SDS011;9239;50.932;3.142;2023-02-22T04:43:52;29.87;;;22.70;;
18228;SDS011;9239;50.932;3.142;2023-02-22T04:46:18;31.40;;;23.13;;
18228;SDS011;9239;50.932;3.142;2023-02-22T04:48:45;32.00;;;23.67;;
18228;SDS011;9239;50.932;3.142;2023-02-22T04:51:12;36.00;;;26.23;;
18228;SDS011;9239;50.932;3.142;2023-02-22T04:53:39;33.13;;;24.87;;
18228;SDS011;9239;50.932;3.142;2023-02-22T04:56:06;33.17;;;24.43;;
18228;SDS011;9239;50.932;3.142;2023-02-22T04:58:34;33.03;;;26.27;;
18228;SDS011;9239;50.932;3.142;2023-02-22T05:01:01;32.17;;;23.30;;
18228;SDS011;9239;50.932;3.142;2023-02-22T05:03:28;33.03;;;24.23;;
18228;SDS011;9239;50.932;3.142;2023-02-22T05:05:55;29.87;;;22.80;;
18228;SDS011;9239;50.932;3.142;2023-02-22T05:08:22;31.67;;;23.70;;
18228;SDS011;9239;50.932;3.142;2023-02-22T05:10:49;34.63;;;23.70;;
18228;SDS011;9239;50.932;3.142;2023-02-22T05:13:16;33.23;;;22.63;;
18228;SDS011;9239;50.932;3.142;2023-02-22T05:15:44;31.50;;;24.00;;
18228;SDS011;9239;50.932;3.142;2023-02-22T05:18:11;30.57;;;23.77;;
18228;SDS011;9239;50.932;3.142;2023-02-22T05:20:38;27.90;;;21.43;;
18228;SDS011;9239;50.932;3.142;2023-02-22T05:23:05;33.57;;;24.37;;
18228;SDS011;9239;50.932;3.142;2023-02-22T05:25:32;34.60;;;24.50;;
18228;SDS011;9239;50.932;3.142;2023-02-22T05:28:00;31.63;;;22.83;;
18228;SDS011;9239;50.932;3.142;2023-02-22T05:30:30;32.23;;;22.73;;
18228;SDS011;9239;50.932;3.142;2023-02-22T05:32:59;30.13;;;22.03;;
18228;SDS011;9239;50.932;3.142;2023-02-22T05:35:27;27.97;;;22.77;;
18228;SDS011;9239;50.932;3.142;2023-02-22T05:37:54;29.20;;;22.33;;
18228;SDS011;9239;50.932;3.142;2023-02-22T05:40:23;30.60;;;23.83;;
18228;SDS011;9239;50.932;3.142;2023-02-22T05:42:51;31.93;;;23.40;;
18228;SDS011;9239;50.932;3.142;2023-02-22T05:45:21;30.37;;;22.07;;
18228;SDS011;9239;50.932;3.142;2023-02-22T05:47:49;30.33;;;21.50;;
18228;SDS011;9239;50.932;3.142;2023-02-22T05:50:18;32.57;;;23.10;;
18228;SDS011;9239;50.932;3.142;2023-02-22T05:52:46;29.70;;;21.77;;
18228;SDS011;9239;50.932;3.142;2023-02-22T05:55:14;31.13;;;23.73;;
18228;SDS011;9239;50.932;3.142;2023-02-22T05:57:43;29.10;;;22.87;;
18228;SDS011;9239;50.932;3.142;2023-02-22T06:00:13;31.70;;;23.03;;
18228;SDS011;9239;50.932;3.142;2023-02-22T06:02:43;37.83;;;22.80;;
18228;SDS011;9239;50.932;3.142;2023-02-22T06:05:10;30.73;;;23.00;;
18228;SDS011;9239;50.932;3.142;2023-02-22T06:07:39;32.80;;;22.40;;
18228;SDS011;9239;50.932;3.142;2023-02-22T06:10:06;33.00;;;23.30;;
18228;SDS011;9239;50.932;3.142;2023-02-22T06:12:33;32.30;;;22.73;;
18228;SDS011;9239;50.932;3.142;2023-02-22T06:15:00;29.70;;;24.40;;
18228;SDS011;9239;50.932;3.142;2023-02-22T06:17:26;31.03;;;22.70;;
18228;SDS011;9239;50.932;3.142;2023-02-22T06:19:54;28.83;;;22.73;;
18228;SDS011;9239;50.932;3.142;2023-02-22T06:22:21;31.13;;;22.77;;
18228;SDS011;9239;50.932;3.142;2023-02-22T06:24:49;33.77;;;22.87;;
18228;SDS011;9239;50.932;3.142;2023-02-22T06:27:16;31.37;;;22.77;;
18228;SDS011;9239;50.932;3.142;2023-02-22T06:29:43;35.83;;;24.03;;
18228;SDS011;9239;50.932;3.142;2023-02-22T06:32:11;27.73;;;23.20;;
18228;SDS011;9239;50.932;3.142;2023-02-22T06:34:38;35.00;;;24.17;;
18228;SDS011;9239;50.932;3.142;2023-02-22T06:37:06;25.97;;;22.70;;
18228;SDS011;9239;50.932;3.142;2023-02-22T06:39:33;29.73;;;23.50;;
18228;SDS011;9239;50.932;3.142;2023-02-22T06:42:01;32.63;;;24.17;;
18228;SDS011;9239;50.932;3.142;2023-02-22T06:44:28;28.83;;;22.00;;
18228;SDS011;9239;50.932;3.142;2023-02-22T06:46:55;29.73;;;22.53;;
18228;SDS011;9239;50.932;3.142;2023-02-22T06:49:23;27.77;;;21.63;;
18228;SDS011;9239;50.932;3.142;2023-02-22T06:51:52;29.50;;;22.03;;
18228;SDS011;9239;50.932;3.142;2023-02-22T06:54:19;28.27;;;21.90;;
18228;SDS011;9239;50.932;3.142;2023-02-22T06:56:46;25.77;;;21.30;;
18228;SDS011;9239;50.932;3.142;2023-02-22T06:59:14;25.90;;;22.77;;
18228;SDS011;9239;50.932;3.142;2023-02-22T07:01:41;28.57;;;22.10;;
18228;SDS011;9239;50.932;3.142;2023-02-22T07:04:09;27.10;;;22.07;;
18228;SDS011;9239;50.932;3.142;2023-02-22T07:06:36;29.73;;;22.90;;
18228;SDS011;9239;50.932;3.142;2023-02-22T07:09:03;27.60;;;21.73;;
18228;SDS011;9239;50.932;3.142;2023-02-22T07:11:30;27.17;;;21.90;;
18228;SDS011;9239;50.932;3.142;2023-02-22T07:13:57;26.40;;;21.70;;
18228;SDS011;9239;50.932;3.142;2023-02-22T07:16:25;26.37;;;22.17;;
18228;SDS011;9239;50.932;3.142;2023-02-22T07:18:52;24.03;;;20.77;;
18228;SDS011;9239;50.932;3.142;2023-02-22T07:21:19;27.93;;;21.10;;
18228;SDS011;9239;50.932;3.142;2023-02-22T07:23:49;25.67;;;20.63;;
18228;SDS011;9239;50.932;3.142;2023-02-22T07:26:17;23.97;;;20.97;;
18228;SDS011;9239;50.932;3.142;2023-02-22T07:28:44;26.50;;;22.00;;
18228;SDS011;9239;50.932;3.142;2023-02-22T07:31:11;27.50;;;23.37;;
18228;SDS011;9239;50.932;3.142;2023-02-22T07:33:39;25.73;;;22.30;;
18228;SDS011;9239;50.932;3.142;2023-02-22T07:36:06;33.80;;;22.73;;
18228;SDS011;9239;50.932;3.142;2023-02-22T07:38:34;27.13;;;21.90;;
18228;SDS011;9239;50.932;3.142;2023-02-22T07:41:01;27.50;;;22.00;;
18228;SDS011;9239;50.932;3.142;2023-02-22T07:43:27;31.87;;;22.53;;
18228;SDS011;9239;50.932;3.142;2023-02-22T07:45:56;29.20;;;22.97;;
18228;SDS011;9239;50.932;3.142;2023-02-22T07:48:25;29.30;;;23.53;;
18228;SDS011;9239;50.932;3.142;2023-02-22T07:50:55;27.13;;;22.37;;
18228;SDS011;9239;50.932;3.142;2023-02-22T07:53:23;27.20;;;22.60;;
18228;SDS011;9239;50.932;3.142;2023-02-22T07:55:54;28.80;;;23.20;;
18228;SDS011;9239;50.932;3.142;2023-02-22T07:58:22;26.40;;;21.73;;
18228;SDS011;9239;50.932;3.142;2023-02-22T08:00:50;28.20;;;23.47;;
18228;SDS011;9239;50.932;3.142;2023-02-22T08:03:18;27.50;;;22.73;;
18228;SDS011;9239;50.932;3.142;2023-02-22T08:05:47;27.07;;;21.80;;
18228;SDS011;9239;50.932;3.142;2023-02-22T08:08:16;27.93;;;22.10;;
18228;SDS011;9239;50.932;3.142;2023-02-22T08:10:43;27.97;;;22.00;;
18228;SDS011;9239;50.932;3.142;2023-02-22T08:13:10;28.93;;;22.90;;
18228;SDS011;9239;50.932;3.142;2023-02-22T08:15:38;24.30;;;21.70;;
18228;SDS011;9239;50.932;3.142;2023-02-22T08:18:06;27.27;;;22.97;;
18228;SDS011;9239;50.932;3.142;2023-02-22T08:20:35;26.13;;;21.73;;
18228;SDS011;9239;50.932;3.142;2023-02-22T08:23:02;30.53;;;23.10;;
18228;SDS011;9239;50.932;3.142;2023-02-22T08:25:31;30.57;;;23.90;;
18228;SDS011;9239;50.932;3.142;2023-02-22T08:27:59;26.23;;;21.97;;
18228;SDS011;9239;50.932;3.142;2023-02-22T08:30:29;28.30;;;22.97;;
18228;SDS011;9239;50.932;3.142;2023-02-22T08:32:58;30.20;;;25.00;;
18228;SDS011;9239;50.932;3.142;2023-02-22T08:35:26;28.40;;;22.57;;
18228;SDS011;9239;50.932;3.142;2023-02-22T08:37:54;30.67;;;24.53;;
18228;SDS011;9239;50.932;3.142;2023-02-22T08:40:24;27.13;;;23.30;;
18228;SDS011;9239;50.932;3.142;2023-02-22T08:42:54;28.60;;;23.90;;
18228;SDS011;9239;50.932;3.142;2023-02-22T08:45:21;31.63;;;23.87;;
18228;SDS011;9239;50.932;3.142;2023-02-22T08:47:48;30.47;;;24.43;;
18228;SDS011;9239;50.932;3.142;2023-02-22T08:50:16;28.67;;;25.23;;
18228;SDS011;9239;50.932;3.142;2023-02-22T08:52:45;29.90;;;24.17;;
18228;SDS011;9239;50.932;3.142;2023-02-22T08:55:12;28.47;;;24.87;;
18228;SDS011;9239;50.932;3.142;2023-02-22T08:57:39;29.00;;;23.67;;
18228;SDS011;9239;50.932;3.142;2023-02-22T09:00:08;28.30;;;23.40;;
18228;SDS011;9239;50.932;3.142;2023-02-22T09:02:36;32.33;;;25.63;;
18228;SDS011;9239;50.932;3.142;2023-02-22T09:05:03;30.40;;;25.20;;
18228;SDS011;9239;50.932;3.142;2023-02-22T09:07:31;30.83;;;26.60;;
18228;SDS011;9239;50.932;3.142;2023-02-22T09:09:57;29.07;;;25.93;;
18228;SDS011;9239;50.932;3.142;2023-02-22T09:12:24;29.10;;;25.03;;
18228;SDS011;9239;50.932;3.142;2023-02-22T09:14:51;29.57;;;25.53;;
18228;SDS011;9239;50.932;3.142;2023-02-22T09:17:19;30.93;;;25.00;;
18228;SDS011;9239;50.932;3.142;2023-02-22T09:19:46;29.23;;;26.13;;
18228;SDS011;9239;50.932;3.142;2023-02-22T09:22:13;31.13;;;25.50;;
18228;SDS011;9239;50.932;3.142;2023-02-22T09:24:40;29.60;;;26.03;;
18228;SDS011;9239;50.932;3.142;2023-02-22T09:27:08;28.93;;;24.50;;
18228;SDS011;9239;50.932;3.142;2023-02-22T09:29:36;29.27;;;26.20;;
18228;SDS011;9239;50.932;3.142;2023-02-22T09:32:03;32.73;;;28.53;;
18228;SDS011;9239;50.932;3.142;2023-02-22T09:34:32;29.37;;;26.30;;
18228;SDS011;9239;50.932;3.142;2023-02-22T09:36:59;32.83;;;26.70;;
18228;SDS011;9239;50.932;3.142;2023-02-22T09:39:29;28.83;;;25.77;;
18228;SDS011;9239;50.932;3.142;2023-02-22T09:42:02;32.97;;;26.47;;
18228;SDS011;9239;50.932;3.142;2023-02-22T09:44:37;31.40;;;26.73;;
18228;SDS011;9239;50.932;3.142;2023-02-22T09:47:13;32.07;;;26.57;;
18228;SDS011;9239;50.932;3.142;2023-02-22T09:49:47;29.63;;;26.43;;
18228;SDS011;9239;50.932;3.142;2023-02-22T09:52:23;32.93;;;27.50;;
18228;SDS011;9239;50.932;3.142;2023-02-22T09:54:54;32.50;;;26.77;;
18228;SDS011;9239;50.932;3.142;2023-02-22T09:57:31;30.60;;;27.23;;
18228;SDS011;9239;50.932;3.142;2023-02-22T10:00:01;28.07;;;25.17;;
18228;SDS011;9239;50.932;3.142;2023-02-22T10:02:38;32.17;;;27.27;;
18228;SDS011;9239;50.932;3.142;2023-02-22T10:05:12;30.33;;;27.13;;
18228;SDS011;9239;50.932;3.142;2023-02-22T10:07:45;32.13;;;27.37;;
18228;SDS011;9239;50.932;3.142;2023-02-22T10:10:17;33.77;;;28.43;;
18228;SDS011;9239;50.932;3.142;2023-02-22T10:12:48;31.90;;;26.80;;
18228;SDS011;9239;50.932;3.142;2023-02-22T10:15:35;30.83;;;26.67;;
18228;SDS011;9239;50.932;3.142;2023-02-22T10:18:16;32.00;;;27.33;;
18228;SDS011;9239;50.932;3.142;2023-02-22T10:21:08;31.63;;;28.33;;
18228;SDS011;9239;50.932;3.142;2023-02-22T10:23:50;30.47;;;27.17;;
18228;SDS011;9239;50.932;3.142;2023-02-22T10:26:24;32.77;;;29.37;;
18228;SDS011;9239;50.932;3.142;2023-02-22T10:28:55;33.37;;;29.77;;
18228;SDS011;9239;50.932;3.142;2023-02-22T10:31:29;38.57;;;34.13;;
18228;SDS011;9239;50.932;3.142;2023-02-22T10:33:59;40.03;;;32.67;;
18228;SDS011;9239;50.932;3.142;2023-02-22T10:36:29;40.93;;;32.87;;
18228;SDS011;9239;50.932;3.142;2023-02-22T10:38:57;47.43;;;37.87;;
18228;SDS011;9239;50.932;3.142;2023-02-22T10:41:28;72.83;;;48.13;;
18228;SDS011;9239;50.932;3.142;2023-02-22T10:43:56;65.27;;;47.93;;
18228;SDS011;9239;50.932;3.142;2023-02-22T10:46:24;80.03;;;52.90;;
18228;SDS011;9239;50.932;3.142;2023-02-22T10:48:53;70.80;;;49.40;;
18228;SDS011;9239;50.932;3.142;2023-02-22T10:51:29;74.07;;;50.10;;
18228;SDS011;9239;50.932;3.142;2023-02-22T10:53:58;69.97;;;49.27;;
18228;SDS011;9239;50.932;3.142;2023-02-22T10:56:34;61.37;;;46.33;;
18228;SDS011;9239;50.932;3.142;2023-02-22T10:59:11;61.13;;;45.80;;
18228;SDS011;9239;50.932;3.142;2023-02-22T11:01:55;68.10;;;47.43;;
18228;SDS011;9239;50.932;3.142;2023-02-22T11:04:23;61.43;;;44.83;;
18228;SDS011;9239;50.932;3.142;2023-02-22T11:09:48;68.47;;;45.07;;
18228;SDS011;9239;50.932;3.142;2023-02-22T11:12:18;56.47;;;43.17;;
18228;SDS011;9239;50.932;3.142;2023-02-22T11:14:47;61.10;;;43.73;;
18228;SDS011;9239;50.932;3.142;2023-02-22T11:17:16;60.37;;;44.60;;
18228;SDS011;9239;50.932;3.142;2023-02-22T11:19:48;54.50;;;41.73;;
18228;SDS011;9239;50.932;3.142;2023-02-22T11:22:20;61.60;;;45.43;;
18228;SDS011;9239;50.932;3.142;2023-02-22T11:24:53;62.40;;;45.50;;
18228;SDS011;9239;50.932;3.142;2023-02-22T11:27:26;58.37;;;44.60;;
18228;SDS011;9239;50.932;3.142;2023-02-22T11:29:58;60.40;;;45.07;;
18228;SDS011;9239;50.932;3.142;2023-02-22T11:32:48;64.53;;;46.80;;
18228;SDS011;9239;50.932;3.142;2023-02-22T11:35:22;67.63;;;49.77;;
18228;SDS011;9239;50.932;3.142;2023-02-22T11:38:08;75.73;;;51.00;;
18228;SDS011;9239;50.932;3.142;2023-02-22T11:40:38;69.50;;;49.53;;
18228;SDS011;9239;50.932;3.142;2023-02-22T11:43:05;78.93;;;51.60;;
18228;SDS011;9239;50.932;3.142;2023-02-22T11:45:36;80.27;;;50.50;;
18228;SDS011;9239;50.932;3.142;2023-02-22T11:48:05;76.67;;;50.53;;
18228;SDS011;9239;50.932;3.142;2023-02-22T11:50:35;87.30;;;54.37;;
18228;SDS011;9239;50.932;3.142;2023-02-22T11:53:17;74.00;;;51.37;;
18228;SDS011;9239;50.932;3.142;2023-02-22T11:56:03;76.47;;;52.93;;
18228;SDS011;9239;50.932;3.142;2023-02-22T11:58:40;83.63;;;55.40;;
18228;SDS011;9239;50.932;3.142;2023-02-22T12:01:14;75.83;;;49.93;;
18228;SDS011;9239;50.932;3.142;2023-02-22T12:06:47;70.63;;;46.27;;
18228;SDS011;9239;50.932;3.142;2023-02-22T12:09:21;75.20;;;48.07;;
18228;SDS011;9239;50.932;3.142;2023-02-22T12:11:57;70.70;;;46.00;;
18228;SDS011;9239;50.932;3.142;2023-02-22T12:14:37;80.70;;;49.17;;
18228;SDS011;9239;50.932;3.142;2023-02-22T12:17:12;89.77;;;54.27;;
18228;SDS011;9239;50.932;3.142;2023-02-22T12:19:48;88.60;;;51.57;;
18228;SDS011;9239;50.932;3.142;2023-02-22T12:22:17;95.60;;;55.77;;
18228;SDS011;9239;50.932;3.142;2023-02-22T12:24:47;90.57;;;54.77;;
18228;SDS011;9239;50.932;3.142;2023-02-22T12:27:21;90.50;;;53.83;;
18228;SDS011;9239;50.932;3.142;2023-02-22T12:29:53;82.40;;;52.30;;
18228;SDS011;9239;50.932;3.142;2023-02-22T12:32:28;75.03;;;48.23;;
18228;SDS011;9239;50.932;3.142;2023-02-22T12:35:00;77.20;;;49.33;;
18228;SDS011;9239;50.932;3.142;2023-02-22T12:37:38;71.90;;;47.03;;
18228;SDS011;9239;50.932;3.142;2023-02-22T12:40:15;66.97;;;45.23;;
18228;SDS011;9239;50.932;3.142;2023-02-22T12:42:51;65.43;;;44.33;;
18228;SDS011;9239;50.932;3.142;2023-02-22T12:45:25;64.90;;;44.23;;
18228;SDS011;9239;50.932;3.142;2023-02-22T12:47:59;68.30;;;43.70;;
18228;SDS011;9239;50.932;3.142;2023-02-22T12:50:36;67.43;;;43.83;;
18228;SDS011;9239;50.932;3.142;2023-02-22T12:53:05;59.47;;;44.13;;
18228;SDS011;9239;50.932;3.142;2023-02-22T12:55:40;63.17;;;44.10;;
18228;SDS011;9239;50.932;3.142;2023-02-22T12:58:17;66.93;;;44.87;;
18228;SDS011;9239;50.932;3.142;2023-02-22T13:00:50;56.00;;;40.97;;
18228;SDS011;9239;50.932;3.142;2023-02-22T13:03:26;65.43;;;45.30;;
18228;SDS011;9239;50.932;3.142;2023-02-22T13:05:59;61.87;;;43.17;;
18228;SDS011;9239;50.932;3.142;2023-02-22T13:08:44;60.20;;;43.93;;
18228;SDS011;9239;50.932;3.142;2023-02-22T13:11:19;63.17;;;42.40;;
18228;SDS011;9239;50.932;3.142;2023-02-22T13:14:02;59.73;;;41.87;;
18228;SDS011;9239;50.932;3.142;2023-02-22T13:16:39;65.10;;;42.43;;
18228;SDS011;9239;50.932;3.142;2023-02-22T13:19:20;62.50;;;43.57;;
18228;SDS011;9239;50.932;3.142;2023-02-22T13:21:56;60.47;;;42.03;;
18228;SDS011;9239;50.932;3.142;2023-02-22T13:24:28;59.60;;;41.07;;
18228;SDS011;9239;50.932;3.142;2023-02-22T13:27:03;57.87;;;40.80;;
18228;SDS011;9239;50.932;3.142;2023-02-22T13:29:37;55.97;;;41.00;;
18228;SDS011;9239;50.932;3.142;2023-02-22T13:32:23;58.80;;;39.87;;
18228;SDS011;9239;50.932;3.142;2023-02-22T13:35:15;54.70;;;38.33;;
18228;SDS011;9239;50.932;3.142;2023-02-22T13:38:05;51.20;;;38.63;;
18228;SDS011;9239;50.932;3.142;2023-02-22T13:41:01;55.37;;;38.50;;
18228;SDS011;9239;50.932;3.142;2023-02-22T13:43:54;55.20;;;38.77;;
18228;SDS011;9239;50.932;3.142;2023-02-22T13:49:54;57.63;;;39.27;;
18228;SDS011;9239;50.932;3.142;2023-02-22T13:52:42;61.40;;;40.43;;
18228;SDS011;9239;50.932;3.142;2023-02-22T13:55:14;54.67;;;38.63;;
18228;SDS011;9239;50.932;3.142;2023-02-22T13:57:43;51.50;;;36.07;;
18228;SDS011;9239;50.932;3.142;2023-02-22T14:00:18;52.03;;;37.37;;
18228;SDS011;9239;50.932;3.142;2023-02-22T14:03:05;53.33;;;38.07;;
18228;SDS011;9239;50.932;3.142;2023-02-22T14:08:41;48.07;;;32.63;;
18228;SDS011;9239;50.932;3.142;2023-02-22T14:14:18;44.70;;;31.03;;
18228;SDS011;9239;50.932;3.142;2023-02-22T14:20:01;43.33;;;31.47;;
18228;SDS011;9239;50.932;3.142;2023-02-22T14:22:38;39.67;;;28.50;;
18228;SDS011;9239;50.932;3.142;2023-02-22T14:25:13;43.50;;;30.67;;
18228;SDS011;9239;50.932;3.142;2023-02-22T14:27:58;43.20;;;28.13;;
18228;SDS011;9239;50.932;3.142;2023-02-22T14:30:27;41.30;;;28.37;;
18228;SDS011;9239;50.932;3.142;2023-02-22T14:32:55;39.53;;;29.13;;
18228;SDS011;9239;50.932;3.142;2023-02-22T14:35:36;42.27;;;28.90;;
18228;SDS011;9239;50.932;3.142;2023-02-22T14:38:05;36.13;;;26.93;;
18228;SDS011;9239;50.932;3.142;2023-02-22T14:40:42;37.33;;;27.77;;
18228;SDS011;9239;50.932;3.142;2023-02-22T14:43:13;41.67;;;27.97;;
18228;SDS011;9239;50.932;3.142;2023-02-22T14:45:44;39.77;;;27.93;;
18228;SDS011;9239;50.932;3.142;2023-02-22T14:48:17;39.97;;;27.33;;
18228;SDS011;9239;50.932;3.142;2023-02-22T14:50:51;38.77;;;26.33;;
18228;SDS011;9239;50.932;3.142;2023-02-22T14:53:23;37.80;;;26.53;;
18228;SDS011;9239;50.932;3.142;2023-02-22T14:55:55;39.57;;;26.77;;
18228;SDS011;9239;50.932;3.142;2023-02-22T14:58:28;40.43;;;26.50;;
18228;SDS011;9239;50.932;3.142;2023-02-22T15:01:14;37.30;;;24.87;;
18228;SDS011;9239;50.932;3.142;2023-02-22T15:03:47;35.87;;;25.80;;
18228;SDS011;9239;50.932;3.142;2023-02-22T15:06:18;41.63;;;28.57;;
18228;SDS011;9239;50.932;3.142;2023-02-22T15:08:46;39.57;;;29.33;;
18228;SDS011;9239;50.932;3.142;2023-02-22T15:11:20;40.90;;;28.20;;
18228;SDS011;9239;50.932;3.142;2023-02-22T15:13:49;38.27;;;26.60;;
18228;SDS011;9239;50.932;3.142;2023-02-22T15:16:20;40.03;;;26.73;;
18228;SDS011;9239;50.932;3.142;2023-02-22T15:18:51;40.90;;;26.97;;